createdAt,value
2018-12-27T00:01:31.466Z,100673.54
2018-12-27T00:04:00.283Z,100670.80
2018-12-27T00:06:31.991Z,100665.69
2018-12-27T00:09:00.648Z,100663.89
2018-12-27T00:11:29.386Z,100658.80
2018-12-27T00:13:58.260Z,100663.35
2018-12-27T00:16:26.877Z,100665.22
2018-12-27T00:18:55.680Z,100663.02
2018-12-27T00:21:24.680Z,100661.14
2018-12-27T00:23:53.421Z,100659.02
2018-12-27T00:26:22.494Z,100658.45
2018-12-27T00:28:53.603Z,100652.29
2018-12-27T00:31:22.651Z,100648.94
2018-12-27T00:33:51.462Z,100657.64
2018-12-27T00:36:23.457Z,100650.94
2018-12-27T00:38:52.557Z,100651.57
2018-12-27T00:41:21.210Z,100650.38
2018-12-27T00:43:50.098Z,100652.34
2018-12-27T00:46:19.284Z,100645.96
2018-12-27T00:48:49.617Z,100648.02
2018-12-27T00:51:19.464Z,100643.63
2018-12-27T00:53:48.526Z,100644.58
2018-12-27T00:56:17.804Z,100632.73
2018-12-27T00:58:50.948Z,100638.77
2018-12-27T01:01:19.655Z,100635.88
2018-12-27T01:03:49.459Z,100632.61
2018-12-27T01:06:18.466Z,100634.25
2018-12-27T01:08:47.227Z,100634.38
2018-12-27T01:11:16.392Z,100639.06
2018-12-27T01:13:45.476Z,100635.27
2018-12-27T01:16:14.751Z,100636.28
2018-12-27T01:18:45.022Z,100632.49
2018-12-27T01:21:15.456Z,100636.16
2018-12-27T01:23:44.960Z,100630.63
2018-12-27T01:26:15.503Z,100638.59
2018-12-27T01:28:44.397Z,100642.41
2018-12-27T01:31:13.133Z,100641.56
2018-12-27T01:33:41.887Z,100640.94
2018-12-27T01:36:11.002Z,100635.61
2018-12-27T01:38:39.867Z,100624.59
2018-12-27T01:41:08.992Z,100624.59
2018-12-27T01:43:39.846Z,100639.84
2018-12-27T01:46:08.742Z,100637.59
2018-12-27T01:48:38.250Z,100635.94
2018-12-27T01:51:06.931Z,100640.27
2018-12-27T01:53:35.672Z,100638.38
2018-12-27T01:56:04.931Z,100637.44
2018-12-27T01:58:33.789Z,100635.17
2018-12-27T02:01:03.906Z,100631.34
2018-12-27T02:03:33.295Z,100631.77
2018-12-27T02:06:02.510Z,100635.57
2018-12-27T02:08:31.238Z,100631.25
2018-12-27T02:11:00.431Z,100633.96
2018-12-27T02:13:29.266Z,100627.46
2018-12-27T02:15:58.291Z,100626.55
2018-12-27T02:18:29.546Z,100626.55
2018-12-27T02:20:58.486Z,100626.55
2018-12-27T02:23:27.137Z,100625.23
2018-12-27T02:25:55.785Z,100613.52
2018-12-27T02:28:24.434Z,100613.52
2018-12-27T02:30:53.147Z,100618.62
2018-12-27T02:33:21.767Z,100621.37
2018-12-27T02:35:50.399Z,100616.36
2018-12-27T02:38:19.051Z,100622.12
2018-12-27T02:40:47.666Z,100622.12
2018-12-27T02:43:16.345Z,100618.22
2018-12-27T02:45:45.000Z,100612.41
2018-12-27T02:48:13.622Z,100615.78
2018-12-27T02:50:42.340Z,100606.74
2018-12-27T02:53:11.049Z,100613.77
2018-12-27T02:55:39.668Z,100606.13
2018-12-27T02:58:08.391Z,100607.63
2018-12-27T03:00:37.076Z,100607.39
2018-12-27T03:03:05.806Z,100601.45
2018-12-27T03:05:34.423Z,100593.34
2018-12-27T03:08:03.076Z,100581.47
2018-12-27T03:10:31.694Z,100590.05
2018-12-27T03:13:00.355Z,100583.52
2018-12-27T03:15:28.984Z,100593.94
2018-12-27T03:17:57.598Z,100591.48
2018-12-27T03:20:26.250Z,100591.48
2018-12-27T03:22:54.871Z,100582.04
2018-12-27T03:25:23.526Z,100579.21
2018-12-27T03:27:52.158Z,100575.44
2018-12-27T03:30:20.807Z,100576.41
2018-12-27T03:32:49.433Z,100572.45
2018-12-27T03:35:18.103Z,100577.05
2018-12-27T03:37:46.793Z,100571.30
2018-12-27T03:40:15.469Z,100569.37
2018-12-27T03:42:44.363Z,100569.37
2018-12-27T03:45:13.158Z,100556.87
2018-12-27T03:47:41.874Z,100552.02
2018-12-27T03:50:10.522Z,100552.02
2018-12-27T03:52:39.147Z,100555.22
2018-12-27T03:55:07.802Z,100542.70
2018-12-27T03:57:36.586Z,100551.06
2018-12-27T04:02:00.536Z,100536.20
2018-12-27T04:04:29.195Z,100536.20
2018-12-27T04:06:57.817Z,100533.48
2018-12-27T04:09:26.477Z,100528.66
2018-12-27T04:11:55.255Z,100525.45
2018-12-27T04:14:23.841Z,100531.84
2018-12-27T04:16:52.218Z,100538.52
2018-12-27T04:19:20.609Z,100538.52
2018-12-27T04:21:49.019Z,100542.42
2018-12-27T04:24:18.422Z,100544.45
2018-12-27T04:26:46.831Z,100544.45
2018-12-27T04:29:15.282Z,100541.38
2018-12-27T04:31:43.901Z,100532.43
2018-12-27T04:34:12.459Z,100534.38
2018-12-27T04:36:41.536Z,100530.77
2018-12-27T04:39:09.908Z,100533.39
2018-12-27T04:41:38.660Z,100530.81
2018-12-27T04:44:07.060Z,100529.34
2018-12-27T04:46:35.474Z,100529.34
2018-12-27T04:49:03.833Z,100528.06
2018-12-27T04:51:32.244Z,100534.12
2018-12-27T04:54:00.683Z,100534.12
2018-12-27T04:56:29.088Z,100543.82
2018-12-27T04:58:57.477Z,100533.63
2018-12-27T05:01:25.885Z,100523.31
2018-12-27T05:03:54.249Z,100526.47
2018-12-27T05:06:22.656Z,100526.47
2018-12-27T05:08:51.030Z,100532.73
2018-12-27T05:11:19.441Z,100535.09
2018-12-27T05:13:47.883Z,100545.13
2018-12-27T05:16:16.344Z,100541.63
2018-12-27T05:18:44.709Z,100541.63
2018-12-27T05:21:13.117Z,100539.23
2018-12-27T05:23:41.483Z,100539.23
2018-12-27T05:26:09.894Z,100540.25
2018-12-27T05:28:38.262Z,100540.25
2018-12-27T05:31:06.668Z,100539.14
2018-12-27T05:33:35.069Z,100533.81
2018-12-27T05:36:03.446Z,100545.24
2018-12-27T05:38:31.900Z,100540.57
2018-12-27T05:41:00.215Z,100540.57
2018-12-27T05:43:28.698Z,100534.27
2018-12-27T05:45:57.050Z,100534.27
2018-12-27T05:48:25.456Z,100524.75
2018-12-27T05:50:53.825Z,100528.40
2018-12-27T05:53:22.369Z,100536.86
2018-12-27T05:55:50.893Z,100539.45
2018-12-27T05:58:19.307Z,100539.45
2018-12-27T06:00:47.674Z,100539.00
2018-12-27T06:03:16.073Z,100542.73
2018-12-27T06:05:44.514Z,100545.75
2018-12-27T06:08:12.926Z,100545.75
2018-12-27T06:10:41.289Z,100543.33
2018-12-27T06:13:09.723Z,100542.63
2018-12-27T06:15:38.089Z,100545.78
2018-12-27T06:18:06.491Z,100548.03
2018-12-27T06:20:34.881Z,100540.36
2018-12-27T06:23:03.321Z,100542.64
2018-12-27T06:25:31.781Z,100542.64
2018-12-27T06:28:00.170Z,100542.50
2018-12-27T06:30:28.603Z,100533.98
2018-12-27T06:32:57.050Z,100533.07
2018-12-27T06:35:25.416Z,100527.89
2018-12-27T06:37:53.819Z,100527.89
2018-12-27T06:40:22.224Z,100531.92
2018-12-27T06:42:50.617Z,100531.92
2018-12-27T06:45:19.023Z,100529.73
2018-12-27T06:47:47.393Z,100534.66
2018-12-27T06:50:15.896Z,100534.58
2018-12-27T06:52:44.267Z,100532.07
2018-12-27T06:55:12.749Z,100537.29
2018-12-27T06:57:41.127Z,100547.48
2018-12-27T07:00:09.627Z,100548.75
2018-12-27T07:02:37.993Z,100548.75
2018-12-27T07:05:06.422Z,100550.69
2018-12-27T07:07:34.811Z,100548.83
2018-12-27T07:10:03.761Z,100544.75
2018-12-27T07:12:32.134Z,100547.74
2018-12-27T07:15:00.549Z,100555.89
2018-12-27T07:17:28.918Z,100556.45
2018-12-27T07:19:57.318Z,100544.70
2018-12-27T07:22:25.695Z,100544.70
2018-12-27T07:24:54.089Z,100554.16
2018-12-27T07:27:22.469Z,100556.34
2018-12-27T07:29:50.853Z,100558.92
2018-12-27T07:32:19.215Z,100555.47
2018-12-27T07:34:47.632Z,100560.36
2018-12-27T07:37:16.003Z,100568.67
2018-12-27T07:39:44.471Z,100570.14
2018-12-27T07:42:12.830Z,100572.87
2018-12-27T07:44:41.199Z,100558.13
2018-12-27T07:47:09.613Z,100561.23
2018-12-27T07:49:38.050Z,100561.23
2018-12-27T07:52:06.455Z,100562.56
2018-12-27T07:54:34.822Z,100559.89
2018-12-27T07:57:03.229Z,100559.06
2018-12-27T07:59:31.598Z,100559.44
2018-12-27T08:02:00.144Z,100565.58
2018-12-27T08:04:28.583Z,100565.58
2018-12-27T08:06:56.982Z,100566.08
2018-12-27T08:09:25.355Z,100560.06
2018-12-27T08:11:53.837Z,100567.01
2018-12-27T08:14:22.211Z,100555.87
2018-12-27T08:16:50.646Z,100566.20
2018-12-27T08:19:18.985Z,100561.66
2018-12-27T08:21:47.394Z,100557.50
2018-12-27T08:24:15.776Z,100566.11
2018-12-27T08:26:44.179Z,100568.17
2018-12-27T08:29:12.612Z,100568.17
2018-12-27T08:31:41.022Z,100562.05
2018-12-27T08:34:09.395Z,100558.83
2018-12-27T08:36:37.803Z,100560.20
2018-12-27T08:39:07.138Z,100561.53
2018-12-27T08:41:35.543Z,100564.20
2018-12-27T08:44:03.916Z,100566.97
2018-12-27T08:46:32.336Z,100565.15
2018-12-27T08:49:00.704Z,100565.15
2018-12-27T08:51:29.178Z,100564.34
2018-12-27T08:53:57.620Z,100568.38
2018-12-27T08:56:26.019Z,100567.70
2018-12-27T08:58:54.530Z,100561.03
2018-12-27T09:01:22.934Z,100561.03
2018-12-27T09:03:52.397Z,100561.53
2018-12-27T09:06:20.955Z,100556.13
2018-12-27T09:08:50.860Z,100559.73
2018-12-27T09:11:19.266Z,100559.73
2018-12-27T09:13:47.625Z,100552.96
2018-12-27T09:16:15.997Z,100553.05
2018-12-27T09:18:44.511Z,100553.05
2018-12-27T09:21:12.885Z,100558.19
2018-12-27T09:23:42.317Z,100553.45
2018-12-27T09:26:10.688Z,100555.19
2018-12-27T09:28:39.088Z,100552.70
2018-12-27T09:31:07.480Z,100551.91
2018-12-27T09:33:35.952Z,100552.87
2018-12-27T09:36:04.894Z,100551.25
2018-12-27T09:38:33.437Z,100552.31
2018-12-27T09:41:01.933Z,100549.70
2018-12-27T09:43:30.421Z,100552.35
2018-12-27T09:45:58.831Z,100552.77
2018-12-27T09:48:27.233Z,100552.60
2018-12-27T09:50:55.586Z,100561.44
2018-12-27T09:53:23.993Z,100557.95
2018-12-27T09:55:52.427Z,100558.30
2018-12-27T09:58:20.844Z,100555.35
2018-12-27T10:00:49.262Z,100552.80
2018-12-27T10:03:17.609Z,100551.16
2018-12-27T10:05:45.999Z,100552.44
2018-12-27T10:08:14.406Z,100553.29
2018-12-27T10:10:42.773Z,100549.92
2018-12-27T10:13:11.169Z,100552.80
2018-12-27T10:15:39.546Z,100545.08
2018-12-27T10:18:07.946Z,100542.56
2018-12-27T10:20:36.389Z,100541.59
2018-12-27T10:23:04.797Z,100541.75
2018-12-27T10:25:33.294Z,100537.52
2018-12-27T10:28:01.666Z,100529.27
2018-12-27T10:30:30.077Z,100532.05
2018-12-27T10:32:58.649Z,100531.19
2018-12-27T10:35:27.127Z,100524.78
2018-12-27T10:37:55.487Z,100523.33
2018-12-27T10:40:23.886Z,100522.96
2018-12-27T10:42:52.260Z,100516.09
2018-12-27T10:45:20.833Z,100520.34
2018-12-27T10:47:49.216Z,100512.47
2018-12-27T10:50:17.619Z,100512.47
2018-12-27T10:52:46.062Z,100521.64
2018-12-27T10:55:14.476Z,100519.42
2018-12-27T10:57:42.854Z,100520.23
2018-12-27T11:00:12.797Z,100519.00
2018-12-27T11:02:41.170Z,100501.07
2018-12-27T11:05:09.712Z,100501.07
2018-12-27T11:07:38.120Z,100501.46
2018-12-27T11:10:09.175Z,100499.05
2018-12-27T11:12:37.534Z,100466.47
2018-12-27T11:15:06.691Z,100487.16
2018-12-27T11:17:35.141Z,100468.27
2018-12-27T11:20:04.482Z,100466.15
2018-12-27T11:22:33.115Z,100461.01
2018-12-27T11:25:01.524Z,100458.81
2018-12-27T11:27:29.903Z,100457.11
2018-12-27T11:29:58.607Z,100443.34
2018-12-27T11:32:26.984Z,100448.56
2018-12-27T11:34:55.404Z,100450.74
2018-12-27T11:37:23.855Z,100450.74
2018-12-27T11:39:52.250Z,100444.70
2018-12-27T11:42:20.880Z,100445.98
2018-12-27T11:44:49.300Z,100437.37
2018-12-27T11:47:17.807Z,100438.62
2018-12-27T11:49:46.187Z,100441.71
2018-12-27T11:52:14.645Z,100425.41
2018-12-27T11:54:43.090Z,100425.41
2018-12-27T11:57:11.559Z,100418.92
2018-12-27T11:59:39.919Z,100418.92
2018-12-27T12:02:08.399Z,100421.02
2018-12-27T12:04:36.774Z,100421.02
2018-12-27T12:07:05.260Z,100419.70
2018-12-27T12:09:33.700Z,100412.47
2018-12-27T12:12:02.174Z,100412.47
2018-12-27T12:14:30.621Z,100410.72
2018-12-27T12:16:59.090Z,100415.89
2018-12-27T12:19:27.522Z,100405.19
2018-12-27T12:21:55.877Z,100407.36
2018-12-27T12:24:24.553Z,100407.36
2018-12-27T12:26:53.080Z,100401.32
2018-12-27T12:29:21.632Z,100411.24
2018-12-27T12:31:50.035Z,100412.11
2018-12-27T12:34:18.412Z,100408.61
2018-12-27T12:36:46.834Z,100413.31
2018-12-27T12:39:15.227Z,100401.70
2018-12-27T12:41:43.737Z,100404.74
2018-12-27T12:44:12.194Z,100406.05
2018-12-27T12:46:40.639Z,100409.05
2018-12-27T12:49:08.958Z,100406.89
2018-12-27T12:51:39.204Z,100412.02
2018-12-27T12:54:08.558Z,100414.67
2018-12-27T12:56:36.942Z,100400.04
2018-12-27T12:59:05.549Z,100400.04
2018-12-27T13:01:34.013Z,100400.92
2018-12-27T13:04:02.512Z,100394.47
2018-12-27T13:06:30.913Z,100395.34
2018-12-27T13:08:59.403Z,100394.06
2018-12-27T13:11:27.988Z,100394.90
2018-12-27T13:13:56.382Z,100408.21
2018-12-27T13:16:24.754Z,100399.21
2018-12-27T13:18:53.170Z,100399.21
2018-12-27T13:21:21.734Z,100393.63
2018-12-27T13:23:50.288Z,100397.48
2018-12-27T13:26:18.727Z,100386.75
2018-12-27T13:28:47.322Z,100390.20
2018-12-27T13:31:15.743Z,100385.47
2018-12-27T13:33:44.217Z,100392.32
2018-12-27T13:36:12.709Z,100391.47
2018-12-27T13:38:41.192Z,100394.47
2018-12-27T13:41:09.519Z,100388.89
2018-12-27T13:43:37.929Z,100382.86
2018-12-27T13:46:06.586Z,100386.32
2018-12-27T13:48:35.005Z,100378.98
2018-12-27T13:51:03.411Z,100387.59
2018-12-27T13:53:31.801Z,100379.43
2018-12-27T13:56:01.342Z,100378.58
2018-12-27T13:58:31.131Z,100372.53
2018-12-27T14:00:59.853Z,100377.28
2018-12-27T14:03:28.564Z,100372.55
2018-12-27T14:05:57.045Z,100368.66
2018-12-27T14:08:26.025Z,100365.64
2018-12-27T14:10:54.963Z,100365.67
2018-12-27T14:13:23.790Z,100358.36
2018-12-27T14:15:53.472Z,100366.11
2018-12-27T14:18:21.929Z,100366.97
2018-12-27T14:20:53.142Z,100363.50
2018-12-27T14:23:24.564Z,100359.63
2018-12-27T14:25:53.119Z,100350.62
2018-12-27T14:28:21.730Z,100353.62
2018-12-27T14:30:50.210Z,100358.36
2018-12-27T14:33:21.462Z,100363.11
2018-12-27T14:35:50.335Z,100359.22
2018-12-27T14:38:18.781Z,100366.95
2018-12-27T14:40:47.405Z,100357.52
2018-12-27T14:43:15.850Z,100354.92
2018-12-27T14:45:44.812Z,100354.92
2018-12-27T14:48:14.761Z,100352.78
2018-12-27T14:50:44.184Z,100348.47
2018-12-27T14:53:13.083Z,100355.77
2018-12-27T14:55:41.534Z,100350.20
2018-12-27T14:58:10.609Z,100345.02
2018-12-27T15:00:39.474Z,100353.64
2018-12-27T15:03:07.982Z,100351.48
2018-12-27T15:05:36.735Z,100354.06
2018-12-27T15:08:05.256Z,100348.47
2018-12-27T15:10:33.726Z,100342.02
2018-12-27T15:13:06.555Z,100340.31
2018-12-27T15:15:35.166Z,100332.99
2018-12-27T15:18:03.600Z,100332.56
2018-12-27T15:20:32.588Z,100332.98
2018-12-27T15:23:01.581Z,100337.30
2018-12-27T15:25:31.341Z,100341.17
2018-12-27T15:27:59.893Z,100338.59
2018-12-27T15:30:28.263Z,100334.72
2018-12-27T15:32:56.744Z,100335.57
2018-12-27T15:35:25.275Z,100336.86
2018-12-27T15:37:53.843Z,100348.05
2018-12-27T15:40:22.236Z,100339.45
2018-12-27T15:42:51.995Z,100341.17
2018-12-27T15:45:21.669Z,100333.43
2018-12-27T15:47:50.362Z,100333.43
2018-12-27T15:50:19.184Z,100342.02
2018-12-27T15:52:53.203Z,100342.05
2018-12-27T15:55:21.820Z,100329.12
2018-12-27T15:57:50.460Z,100327.84
2018-12-27T16:00:18.966Z,100328.26
2018-12-27T16:02:47.870Z,100327.41
2018-12-27T16:05:16.435Z,100327.41
2018-12-27T16:07:45.306Z,100331.70
2018-12-27T16:10:13.668Z,100330.86
2018-12-27T16:12:42.212Z,100333.84
2018-12-27T16:15:10.656Z,100330.00
2018-12-27T16:17:40.498Z,100335.14
2018-12-27T16:20:08.988Z,100328.28
2018-12-27T16:22:38.268Z,100342.90
2018-12-27T16:25:06.773Z,100346.31
2018-12-27T16:27:36.227Z,100353.19
2018-12-27T16:30:07.074Z,100357.93
2018-12-27T16:32:36.850Z,100359.22
2018-12-27T16:35:06.239Z,100359.22
2018-12-27T16:37:34.691Z,100360.95
2018-12-27T16:40:03.519Z,100363.50
2018-12-27T16:42:32.178Z,100352.76
2018-12-27T16:45:00.820Z,100357.45
2018-12-27T16:47:29.190Z,100357.45
2018-12-27T16:49:57.669Z,100345.87
2018-12-27T16:52:26.040Z,100345.87
2018-12-27T16:54:54.455Z,100347.62
2018-12-27T16:57:22.828Z,100343.75
2018-12-27T16:59:51.304Z,100348.48
2018-12-27T17:02:19.692Z,100350.61
2018-12-27T17:04:48.101Z,100353.65
2018-12-27T17:07:16.479Z,100359.65
2018-12-27T17:09:44.960Z,100349.75
2018-12-27T17:12:13.321Z,100348.48
2018-12-27T17:14:41.864Z,100343.33
2018-12-27T17:17:10.235Z,100344.18
2018-12-27T17:19:38.600Z,100330.41
2018-12-27T17:22:07.076Z,100333.84
2018-12-27T17:24:35.449Z,100344.59
2018-12-27T17:27:03.897Z,100357.08
2018-12-27T17:29:32.343Z,100354.06
2018-12-27T17:32:00.757Z,100358.37
2018-12-27T17:34:29.151Z,100363.52
2018-12-27T17:36:57.573Z,100360.09
2018-12-27T17:39:26.012Z,100363.52
2018-12-27T17:41:54.443Z,100353.20
2018-12-27T17:44:22.824Z,100352.77
2018-12-27T17:46:51.230Z,100356.64
2018-12-27T17:49:19.586Z,100356.64
2018-12-27T17:51:48.043Z,100361.34
2018-12-27T17:54:16.381Z,100360.48
2018-12-27T17:56:44.783Z,100361.79
2018-12-27T17:59:13.152Z,100365.24
2018-12-27T18:01:41.558Z,100365.23
2018-12-27T18:04:09.933Z,100363.97
2018-12-27T18:06:38.358Z,100374.28
2018-12-27T18:09:07.302Z,100369.95
2018-12-27T18:11:35.848Z,100375.55
2018-12-27T18:14:04.215Z,100375.13
2018-12-27T18:16:32.623Z,100366.09
2018-12-27T18:19:01.001Z,100379.44
2018-12-27T18:21:29.398Z,100379.44
2018-12-27T18:23:57.797Z,100391.03
2018-12-27T18:26:26.174Z,100396.16
2018-12-27T18:28:54.579Z,100386.32
2018-12-27T18:31:22.948Z,100388.47
2018-12-27T18:33:51.351Z,100385.02
2018-12-27T18:36:19.724Z,100383.73
2018-12-27T18:38:48.133Z,100380.73
2018-12-27T18:41:16.521Z,100375.55
2018-12-27T18:43:45.002Z,100372.13
2018-12-27T18:46:13.364Z,100382.02
2018-12-27T18:48:41.790Z,100399.61
2018-12-27T18:51:10.274Z,100385.85
2018-12-27T18:53:38.682Z,100391.47
2018-12-27T18:56:07.050Z,100400.91
2018-12-27T18:58:35.464Z,100391.89
2018-12-27T19:01:03.926Z,100396.20
2018-12-27T19:03:32.326Z,100389.77
2018-12-27T19:06:00.768Z,100394.47
2018-12-27T19:08:29.240Z,100394.91
2018-12-27T19:11:34.323Z,100396.63
2018-12-27T19:14:02.872Z,100383.72
2018-12-27T19:16:31.316Z,100386.73
2018-12-27T19:18:59.734Z,100376.42
2018-12-27T19:21:28.718Z,100391.89
2018-12-27T19:23:57.246Z,100386.73
2018-12-27T19:26:25.618Z,100400.48
2018-12-27T19:28:53.998Z,100419.42
2018-12-27T19:31:22.374Z,100406.50
2018-12-27T19:33:50.838Z,100400.91
2018-12-27T19:36:19.729Z,100403.50
2018-12-27T19:38:48.257Z,100391.03
2018-12-27T19:41:16.582Z,100389.75
2018-12-27T19:43:44.998Z,100389.73
2018-12-27T19:46:13.373Z,100405.22
2018-12-27T19:48:41.786Z,100407.36
2018-12-27T19:51:10.232Z,100400.47
2018-12-27T19:53:38.825Z,100397.91
2018-12-27T19:56:08.718Z,100397.50
2018-12-27T19:58:37.253Z,100392.34
2018-12-27T20:01:05.978Z,100389.30
2018-12-27T20:03:34.417Z,100392.34
2018-12-27T20:06:02.848Z,100393.63
2018-12-27T20:08:31.248Z,100391.48
2018-12-27T20:11:01.354Z,100385.47
2018-12-27T20:13:29.745Z,100388.02
2018-12-27T20:15:58.166Z,100385.47
2018-12-27T20:18:26.689Z,100394.47
2018-12-27T20:20:55.186Z,100398.37
2018-12-27T20:23:23.565Z,100400.50
2018-12-27T20:25:55.153Z,100400.50
2018-12-27T20:28:23.685Z,100400.48
2018-12-27T20:30:52.161Z,100400.49
2018-12-27T20:33:20.745Z,100406.95
2018-12-27T20:35:49.472Z,100395.34
2018-12-27T20:38:17.925Z,100395.33
2018-12-27T20:40:46.333Z,100398.75
2018-12-27T20:43:15.224Z,100393.19
2018-12-27T20:45:43.702Z,100385.87
2018-12-27T20:48:12.080Z,100391.91
2018-12-27T20:50:40.552Z,100390.63
2018-12-27T20:53:09.241Z,100390.63
2018-12-27T20:55:37.650Z,100384.16
2018-12-27T20:58:06.069Z,100383.73
2018-12-27T21:00:34.448Z,100378.12
2018-12-27T21:03:02.869Z,100383.74
2018-12-27T21:05:31.289Z,100388.47
2018-12-27T21:07:59.771Z,100378.58
2018-12-27T21:10:28.210Z,100379.44
2018-12-27T21:12:56.683Z,100385.45
2018-12-27T21:15:25.146Z,100390.19
2018-12-27T21:17:53.617Z,100392.33
2018-12-27T21:20:22.062Z,100387.61
2018-12-27T21:22:50.492Z,100393.63
2018-12-27T21:25:18.923Z,100396.62
2018-12-27T21:27:47.354Z,100401.33
2018-12-27T21:30:15.794Z,100403.06
2018-12-27T21:32:44.306Z,100415.11
2018-12-27T21:35:12.670Z,100404.33
2018-12-27T21:37:41.151Z,100409.08
2018-12-27T21:40:10.128Z,100413.39
2018-12-27T21:42:40.828Z,100406.90
2018-12-27T21:45:12.083Z,100410.70
2018-12-27T21:47:40.924Z,100410.70
2018-12-27T21:50:09.530Z,100412.00
2018-12-27T21:52:38.117Z,100405.59
2018-12-27T21:55:07.028Z,100397.01
2018-12-27T21:57:35.813Z,100404.33
2018-12-27T22:00:06.572Z,100409.91
2018-12-27T22:02:35.700Z,100394.85
2018-12-27T22:05:04.328Z,100394.85
2018-12-27T22:07:34.068Z,100395.72
2018-12-27T22:10:05.060Z,100382.83
2018-12-27T22:12:33.944Z,100381.95
2018-12-27T22:15:02.636Z,100384.55
2018-12-27T22:17:31.362Z,100373.38
2018-12-27T22:20:00.082Z,100383.23
2018-12-27T22:22:28.729Z,100374.64
2018-12-27T22:24:57.155Z,100376.80
2018-12-27T22:27:25.561Z,100391.39
2018-12-27T22:29:54.054Z,100395.72
2018-12-27T22:32:24.639Z,100395.72
2018-12-27T22:34:53.798Z,100397.42
2018-12-27T22:37:22.809Z,100376.36
2018-12-27T22:39:51.577Z,100387.97
2018-12-27T22:42:20.624Z,100374.64
2018-12-27T22:44:49.428Z,100374.64
2018-12-27T22:47:18.305Z,100380.66
2018-12-27T22:49:47.377Z,100384.95
2018-12-27T22:52:15.896Z,100392.70
2018-12-27T22:54:44.810Z,100391.40
2018-12-27T22:57:13.666Z,100396.07
2018-12-27T22:59:42.463Z,100390.06
2018-12-27T23:02:11.234Z,100390.06
2018-12-27T23:04:40.096Z,100394.38
2018-12-27T23:07:09.460Z,100390.56
2018-12-27T23:09:38.080Z,100392.66
2018-12-27T23:12:06.598Z,100392.27
2018-12-27T23:14:35.268Z,100382.84
2018-12-27T23:17:04.062Z,100382.84
2018-12-27T23:19:32.915Z,100390.12
2018-12-27T23:22:01.597Z,100388.38
2018-12-27T23:24:30.450Z,100385.81
2018-12-27T23:26:59.355Z,100385.81
2018-12-27T23:29:27.759Z,100393.95
2018-12-27T23:31:56.790Z,100391.39
2018-12-27T23:34:25.875Z,100392.26
2018-12-27T23:36:54.896Z,100394.84
2018-12-27T23:39:23.962Z,100390.53
2018-12-27T23:41:55.201Z,100390.53
2018-12-27T23:44:25.924Z,100386.67
2018-12-27T23:46:54.504Z,100388.36
2018-12-27T23:49:23.210Z,100396.12
2018-12-27T23:51:52.895Z,100389.70
2018-12-27T23:54:21.483Z,100381.95
2018-12-27T23:56:49.950Z,100372.94
2018-12-27T23:59:18.764Z,100389.73
